N124TL KGKT-KAVL
Flight info
| Callsign | N124TL |
|---|---|
| Flight time | 0h 30m |
| Altitude | 7500 |
| Route | VFR SOUTH EAST |
| Aircraft | BE58/L-VGD/C |
Departure
| Time | 2026-04-23 01:30 |
|---|---|
| Airport | Gatlinburg-Pigeon Forge Airport (KGKT) |
Arrival
| Time | 2026-04-23 02:01 |
|---|---|
| Airport | Asheville Regional Airport (KAVL) |
| Time | Latitude | Longitude | Altitude | Speed | Heading |
|---|---|---|---|---|---|
| 2026-04-23 01:25 | 35.86030 | -83.53724 | 1000 ft | 0 kts | 277° |
| 2026-04-23 01:29 | 35.85996 | -83.53751 | 999 ft | 11 kts | 191° |
| 2026-04-23 01:29 | 35.85939 | -83.53769 | 999 ft | 5 kts | 196° |
| 2026-04-23 01:29 | 35.85887 | -83.53734 | 999 ft | 4 kts | 97° |
| 2026-04-23 01:30 | 35.85859 | -83.53517 | 998 ft | 74 kts | 100° |
| 2026-04-23 01:30 | 35.85743 | -83.52670 | 1170 ft | 118 kts | 99° |
| 2026-04-23 01:30 | 35.85605 | -83.51570 | 1436 ft | 141 kts | 99° |
| 2026-04-23 01:30 | 35.85450 | -83.50337 | 1813 ft | 149 kts | 99° |
| 2026-04-23 01:31 | 35.85301 | -83.49078 | 2335 ft | 146 kts | 98° |
| 2026-04-23 01:31 | 35.84911 | -83.47975 | 2831 ft | 142 kts | 137° |
| 2026-04-23 01:31 | 35.84056 | -83.47503 | 3303 ft | 134 kts | 183° |
| 2026-04-23 01:31 | 35.83144 | -83.47612 | 3790 ft | 131 kts | 194° |
| 2026-04-23 01:32 | 35.82256 | -83.47781 | 4270 ft | 129 kts | 194° |
| 2026-04-23 01:32 | 35.81385 | -83.47952 | 4743 ft | 127 kts | 194° |
| 2026-04-23 01:32 | 35.80524 | -83.48114 | 5211 ft | 125 kts | 194° |
| 2026-04-23 01:32 | 35.79686 | -83.48268 | 5668 ft | 123 kts | 193° |
| 2026-04-23 01:33 | 35.78853 | -83.48422 | 6124 ft | 120 kts | 194° |
| 2026-04-23 01:33 | 35.78034 | -83.48572 | 6575 ft | 118 kts | 194° |
| 2026-04-23 01:33 | 35.77231 | -83.48711 | 7014 ft | 117 kts | 193° |
| 2026-04-23 01:33 | 35.76435 | -83.48851 | 7450 ft | 115 kts | 194° |
| 2026-04-23 01:34 | 35.75581 | -83.49009 | 7526 ft | 143 kts | 194° |
| 2026-04-23 01:34 | 35.74504 | -83.49235 | 7479 ft | 167 kts | 194° |
| 2026-04-23 01:34 | 35.73309 | -83.49500 | 7465 ft | 181 kts | 194° |
| 2026-04-23 01:34 | 35.72038 | -83.49796 | 7458 ft | 188 kts | 194° |
| 2026-04-23 01:35 | 35.70734 | -83.50102 | 7456 ft | 190 kts | 194° |
| 2026-04-23 01:35 | 35.69428 | -83.50407 | 7455 ft | 190 kts | 194° |
| 2026-04-23 01:35 | 35.68129 | -83.50710 | 7461 ft | 190 kts | 194° |
| 2026-04-23 01:35 | 35.66813 | -83.51019 | 7464 ft | 190 kts | 194° |
| 2026-04-23 01:36 | 35.65518 | -83.51325 | 7468 ft | 189 kts | 194° |
| 2026-04-23 01:36 | 35.64216 | -83.51604 | 7462 ft | 191 kts | 186° |
| 2026-04-23 01:36 | 35.62911 | -83.51144 | 7473 ft | 196 kts | 158° |
| 2026-04-23 01:36 | 35.61678 | -83.50424 | 7478 ft | 197 kts | 157° |
| 2026-04-23 01:37 | 35.60430 | -83.49679 | 7485 ft | 197 kts | 157° |
| 2026-04-23 01:37 | 35.59202 | -83.48953 | 7487 ft | 197 kts | 157° |
| 2026-04-23 01:37 | 35.57954 | -83.48210 | 7497 ft | 197 kts | 157° |
| 2026-04-23 01:37 | 35.56717 | -83.47475 | 7476 ft | 197 kts | 156° |
| 2026-04-23 01:38 | 35.55703 | -83.46333 | 7481 ft | 201 kts | 118° |
| 2026-04-23 01:38 | 35.55371 | -83.44703 | 7489 ft | 196 kts | 99° |
| 2026-04-23 01:38 | 35.55183 | -83.43053 | 7495 ft | 192 kts | 98° |
| 2026-04-23 01:38 | 35.55001 | -83.41426 | 7498 ft | 190 kts | 98° |
| 2026-04-23 01:39 | 35.54823 | -83.39822 | 7501 ft | 190 kts | 98° |
| 2026-04-23 01:39 | 35.54647 | -83.38218 | 7504 ft | 189 kts | 98° |
| 2026-04-23 01:39 | 35.54474 | -83.36626 | 7507 ft | 189 kts | 98° |
| 2026-04-23 01:39 | 35.54303 | -83.35026 | 7507 ft | 188 kts | 98° |
| 2026-04-23 01:40 | 35.54133 | -83.33406 | 7509 ft | 188 kts | 98° |
| 2026-04-23 01:40 | 35.53965 | -83.31812 | 7507 ft | 189 kts | 98° |
| 2026-04-23 01:40 | 35.53795 | -83.30218 | 7511 ft | 188 kts | 98° |
| 2026-04-23 01:40 | 35.53625 | -83.28620 | 7510 ft | 189 kts | 98° |
| 2026-04-23 01:41 | 35.53126 | -83.27155 | 7510 ft | 185 kts | 136° |
| 2026-04-23 01:41 | 35.52013 | -83.26522 | 7515 ft | 176 kts | 181° |
| 2026-04-23 01:41 | 35.50898 | -83.26976 | 7521 ft | 169 kts | 218° |
| 2026-04-23 01:41 | 35.49956 | -83.27869 | 7513 ft | 170 kts | 222° |
| 2026-04-23 01:42 | 35.49037 | -83.28786 | 7511 ft | 170 kts | 222° |
| 2026-04-23 01:42 | 35.48130 | -83.29690 | 7513 ft | 169 kts | 222° |
| 2026-04-23 01:42 | 35.47212 | -83.30613 | 7515 ft | 170 kts | 222° |
| 2026-04-23 01:42 | 35.46301 | -83.31526 | 7517 ft | 169 kts | 222° |
| 2026-04-23 01:43 | 35.45375 | -83.32459 | 7517 ft | 169 kts | 222° |
| 2026-04-23 01:43 | 35.44470 | -83.33375 | 7516 ft | 169 kts | 222° |
| 2026-04-23 01:43 | 35.43559 | -83.34294 | 7519 ft | 169 kts | 222° |
| 2026-04-23 01:43 | 35.42645 | -83.35222 | 7521 ft | 169 kts | 223° |
| 2026-04-23 01:44 | 35.41569 | -83.35762 | 7517 ft | 175 kts | 184° |
| 2026-04-23 01:44 | 35.40443 | -83.35201 | 7518 ft | 183 kts | 139° |
| 2026-04-23 01:44 | 35.39777 | -83.33859 | 7525 ft | 186 kts | 116° |
| 2026-04-23 01:44 | 35.39251 | -83.32404 | 7526 ft | 186 kts | 115° |
| 2026-04-23 01:45 | 35.38730 | -83.30949 | 7529 ft | 186 kts | 115° |
| 2026-04-23 01:45 | 35.38213 | -83.29506 | 7532 ft | 186 kts | 115° |
| 2026-04-23 01:45 | 35.37690 | -83.28043 | 7532 ft | 187 kts | 115° |
| 2026-04-23 01:45 | 35.37161 | -83.26568 | 7531 ft | 187 kts | 115° |
| 2026-04-23 01:46 | 35.36804 | -83.25053 | 7526 ft | 188 kts | 89° |
| 2026-04-23 01:46 | 35.37239 | -83.23560 | 7534 ft | 186 kts | 58° |
| 2026-04-23 01:46 | 35.37925 | -83.22212 | 7533 ft | 186 kts | 56° |
| 2026-04-23 01:46 | 35.38620 | -83.20867 | 7531 ft | 187 kts | 56° |
| 2026-04-23 01:47 | 35.39311 | -83.19531 | 7527 ft | 187 kts | 56° |
| 2026-04-23 01:47 | 35.40009 | -83.18179 | 7526 ft | 187 kts | 56° |
| 2026-04-23 01:47 | 35.40714 | -83.16811 | 7526 ft | 188 kts | 56° |
| 2026-04-23 01:47 | 35.41404 | -83.15472 | 7528 ft | 188 kts | 56° |
| 2026-04-23 01:48 | 35.42110 | -83.14106 | 7529 ft | 187 kts | 56° |
| 2026-04-23 01:48 | 35.42806 | -83.12758 | 7526 ft | 188 kts | 56° |
| 2026-04-23 01:48 | 35.43502 | -83.11403 | 7521 ft | 188 kts | 56° |
| 2026-04-23 01:48 | 35.44201 | -83.10032 | 7518 ft | 188 kts | 56° |
| 2026-04-23 01:49 | 35.44892 | -83.08680 | 7520 ft | 187 kts | 56° |
| 2026-04-23 01:49 | 35.45504 | -83.07255 | 7516 ft | 188 kts | 62° |
| 2026-04-23 01:49 | 35.46084 | -83.05814 | 7513 ft | 188 kts | 62° |
| 2026-04-23 01:49 | 35.46660 | -83.04385 | 7513 ft | 188 kts | 62° |
| 2026-04-23 01:50 | 35.47242 | -83.02940 | 7514 ft | 188 kts | 62° |
| 2026-04-23 01:50 | 35.47818 | -83.01514 | 7513 ft | 188 kts | 62° |
| 2026-04-23 01:50 | 35.48130 | -82.99965 | 7514 ft | 188 kts | 96° |
| 2026-04-23 01:50 | 35.47822 | -82.98412 | 7519 ft | 188 kts | 108° |
| 2026-04-23 01:51 | 35.47452 | -82.96858 | 7507 ft | 190 kts | 104° |
| 2026-04-23 01:51 | 35.47174 | -82.95232 | 7266 ft | 201 kts | 102° |
| 2026-04-23 01:51 | 35.46897 | -82.93531 | 7035 ft | 204 kts | 102° |
| 2026-04-23 01:51 | 35.46616 | -82.91815 | 6799 ft | 204 kts | 102° |
| 2026-04-23 01:52 | 35.46337 | -82.90110 | 6570 ft | 203 kts | 102° |
| 2026-04-23 01:52 | 35.46054 | -82.88403 | 6338 ft | 203 kts | 102° |
| 2026-04-23 01:52 | 35.45771 | -82.86706 | 6110 ft | 204 kts | 102° |
| 2026-04-23 01:52 | 35.45482 | -82.85014 | 5882 ft | 204 kts | 102° |
| 2026-04-23 01:53 | 35.45193 | -82.83334 | 5652 ft | 202 kts | 102° |
| 2026-04-23 01:53 | 35.44615 | -82.81799 | 5406 ft | 199 kts | 131° |
| 2026-04-23 01:53 | 35.43587 | -82.80763 | 5422 ft | 187 kts | 162° |
| 2026-04-23 01:53 | 35.42308 | -82.80565 | 5439 ft | 181 kts | 182° |
| 2026-04-23 01:54 | 35.41053 | -82.80534 | 5447 ft | 181 kts | 182° |
| 2026-04-23 01:54 | 35.39793 | -82.80512 | 5443 ft | 180 kts | 182° |
| 2026-04-23 01:54 | 35.38522 | -82.80387 | 5439 ft | 185 kts | 164° |
| 2026-04-23 01:54 | 35.37415 | -82.79586 | 5444 ft | 189 kts | 136° |
| 2026-04-23 01:55 | 35.36907 | -82.78106 | 5418 ft | 191 kts | 91° |
| 2026-04-23 01:55 | 35.37132 | -82.76533 | 5428 ft | 188 kts | 78° |
| 2026-04-23 01:55 | 35.37422 | -82.74960 | 5434 ft | 187 kts | 72° |
| 2026-04-23 01:55 | 35.37806 | -82.73439 | 5435 ft | 187 kts | 69° |
| 2026-04-23 01:56 | 35.38233 | -82.71924 | 5408 ft | 189 kts | 68° |
| 2026-04-23 01:56 | 35.38678 | -82.70402 | 5385 ft | 189 kts | 68° |
| 2026-04-23 01:56 | 35.39124 | -82.68888 | 5384 ft | 188 kts | 67° |
| 2026-04-23 01:56 | 35.39573 | -82.67370 | 5381 ft | 187 kts | 67° |
| 2026-04-23 01:57 | 35.40025 | -82.65845 | 5016 ft | 196 kts | 67° |
| 2026-04-23 01:57 | 35.40488 | -82.64282 | 4491 ft | 196 kts | 68° |
| 2026-04-23 01:57 | 35.40951 | -82.62717 | 3962 ft | 193 kts | 67° |
| 2026-04-23 01:57 | 35.41402 | -82.61193 | 3763 ft | 186 kts | 66° |
| 2026-04-23 01:58 | 35.41845 | -82.59695 | 3827 ft | 185 kts | 67° |
| 2026-04-23 01:58 | 35.42278 | -82.58204 | 3809 ft | 185 kts | 70° |
| 2026-04-23 01:58 | 35.42633 | -82.56722 | 3822 ft | 182 kts | 71° |
| 2026-04-23 01:58 | 35.43004 | -82.55203 | 3601 ft | 184 kts | 71° |
| 2026-04-23 01:59 | 35.43362 | -82.53748 | 3437 ft | 176 kts | 70° |
| 2026-04-23 01:59 | 35.43887 | -82.52523 | 3470 ft | 148 kts | 30° |
| 2026-04-23 01:59 | 35.44901 | -82.52420 | 3074 ft | 154 kts | 344° |
| 2026-04-23 01:59 | 35.45899 | -82.52799 | 2868 ft | 145 kts | 339° |
| 2026-04-23 02:00 | 35.46715 | -82.53358 | 2780 ft | 117 kts | 302° |
| 2026-04-23 02:00 | 35.46737 | -82.54210 | 2877 ft | 100 kts | 264° |
| 2026-04-23 02:00 | 35.46315 | -82.54910 | 2754 ft | 119 kts | 211° |
| 2026-04-23 02:00 | 35.45421 | -82.55026 | 2367 ft | 135 kts | 166° |
| 2026-04-23 02:01 | 35.44596 | -82.54642 | 2202 ft | 122 kts | 162° |
| 2026-04-23 02:01 | 35.43908 | -82.54324 | 2159 ft | 82 kts | 163° |
| 2026-04-23 02:01 | 35.43563 | -82.54137 | 2150 ft | 22 kts | 103° |
| 2026-04-23 02:01 | 35.43630 | -82.54057 | 2152 ft | 14 kts | 27° |
| 2026-04-23 02:02 | 35.43673 | -82.53947 | 2153 ft | 1 kts | 70° |